sensor_id;sensor_type;location;lat;lon;timestamp;P1;durP1;ratioP1;P2;durP2;ratioP2
76176;SDS011;64938;47.696;8.066;2023-04-01T00:00:53;0.50;;;0.30;;
76176;SDS011;64938;47.696;8.066;2023-04-01T00:03:20;0.67;;;0.40;;
76176;SDS011;64938;47.696;8.066;2023-04-01T00:05:46;0.50;;;0.30;;
76176;SDS011;64938;47.696;8.066;2023-04-01T00:08:11;0.50;;;0.30;;
76176;SDS011;64938;47.696;8.066;2023-04-01T00:10:37;0.60;;;0.40;;
76176;SDS011;64938;47.696;8.066;2023-04-01T00:13:03;0.60;;;0.40;;
76176;SDS011;64938;47.696;8.066;2023-04-01T00:15:29;2.43;;;0.70;;
76176;SDS011;64938;47.696;8.066;2023-04-01T00:17:54;3.50;;;0.50;;
76176;SDS011;64938;47.696;8.066;2023-04-01T00:20:21;2.83;;;0.70;;
76176;SDS011;64938;47.696;8.066;2023-04-01T00:22:47;1.10;;;0.80;;
76176;SDS011;64938;47.696;8.066;2023-04-01T00:25:12;3.93;;;1.00;;
76176;SDS011;64938;47.696;8.066;2023-04-01T00:27:38;1.53;;;0.90;;
76176;SDS011;64938;47.696;8.066;2023-04-01T00:30:04;3.73;;;1.20;;
76176;SDS011;64938;47.696;8.066;2023-04-01T00:32:30;2.10;;;1.27;;
76176;SDS011;64938;47.696;8.066;2023-04-01T00:34:56;3.60;;;1.20;;
76176;SDS011;64938;47.696;8.066;2023-04-01T00:37:24;4.00;;;1.00;;
76176;SDS011;64938;47.696;8.066;2023-04-01T00:39:50;1.67;;;0.90;;
76176;SDS011;64938;47.696;8.066;2023-04-01T00:42:16;5.10;;;1.23;;
76176;SDS011;64938;47.696;8.066;2023-04-01T00:44:42;4.00;;;1.60;;
76176;SDS011;64938;47.696;8.066;2023-04-01T00:47:11;5.37;;;1.77;;
76176;SDS011;64938;47.696;8.066;2023-04-01T00:49:37;5.00;;;1.70;;
76176;SDS011;64938;47.696;8.066;2023-04-01T00:52:05;5.93;;;1.90;;
76176;SDS011;64938;47.696;8.066;2023-04-01T00:54:32;5.90;;;1.60;;
76176;SDS011;64938;47.696;8.066;2023-04-01T00:56:59;3.90;;;1.50;;
76176;SDS011;64938;47.696;8.066;2023-04-01T00:59:29;5.23;;;1.77;;
76176;SDS011;64938;47.696;8.066;2023-04-01T01:01:57;8.03;;;1.80;;
76176;SDS011;64938;47.696;8.066;2023-04-01T01:09:55;2.87;;;1.43;;
76176;SDS011;64938;47.696;8.066;2023-04-01T01:15:20;2.77;;;1.20;;
76176;SDS011;64938;47.696;8.066;2023-04-01T01:18:08;1.90;;;1.23;;
76176;SDS011;64938;47.696;8.066;2023-04-01T01:32:11;7.33;;;2.03;;
76176;SDS011;64938;47.696;8.066;2023-04-01T01:34:52;3.07;;;1.30;;
76176;SDS011;64938;47.696;8.066;2023-04-01T01:37:32;6.20;;;1.60;;
76176;SDS011;64938;47.696;8.066;2023-04-01T01:39:59;5.00;;;1.20;;
76176;SDS011;64938;47.696;8.066;2023-04-01T01:42:27;2.10;;;1.23;;
76176;SDS011;64938;47.696;8.066;2023-04-01T01:44:55;3.00;;;1.30;;
76176;SDS011;64938;47.696;8.066;2023-04-01T01:47:22;5.37;;;1.80;;
76176;SDS011;64938;47.696;8.066;2023-04-01T01:49:48;4.97;;;1.50;;
76176;SDS011;64938;47.696;8.066;2023-04-01T01:52:16;7.50;;;2.20;;
76176;SDS011;64938;47.696;8.066;2023-04-01T01:54:46;3.63;;;1.17;;
76176;SDS011;64938;47.696;8.066;2023-04-01T01:57:20;6.10;;;1.50;;
76176;SDS011;64938;47.696;8.066;2023-04-01T01:59:48;4.57;;;1.40;;
76176;SDS011;64938;47.696;8.066;2023-04-01T02:02:15;6.07;;;2.10;;
76176;SDS011;64938;47.696;8.066;2023-04-01T02:04:49;7.70;;;1.57;;
76176;SDS011;64938;47.696;8.066;2023-04-01T02:07:17;9.10;;;2.63;;
76176;SDS011;64938;47.696;8.066;2023-04-01T02:09:45;9.17;;;2.10;;
76176;SDS011;64938;47.696;8.066;2023-04-01T02:12:12;6.90;;;1.77;;
76176;SDS011;64938;47.696;8.066;2023-04-01T02:14:56;3.83;;;1.60;;
76176;SDS011;64938;47.696;8.066;2023-04-01T02:17:25;7.37;;;1.93;;
76176;SDS011;64938;47.696;8.066;2023-04-01T02:19:56;2.40;;;1.47;;
76176;SDS011;64938;47.696;8.066;2023-04-01T02:22:25;9.53;;;1.80;;
76176;SDS011;64938;47.696;8.066;2023-04-01T02:24:53;6.63;;;1.67;;
76176;SDS011;64938;47.696;8.066;2023-04-01T02:27:22;3.10;;;1.07;;
76176;SDS011;64938;47.696;8.066;2023-04-01T02:29:47;4.93;;;1.40;;
76176;SDS011;64938;47.696;8.066;2023-04-01T02:32:13;4.60;;;1.50;;
76176;SDS011;64938;47.696;8.066;2023-04-01T02:34:39;3.03;;;1.20;;
76176;SDS011;64938;47.696;8.066;2023-04-01T02:37:05;3.57;;;1.50;;
76176;SDS011;64938;47.696;8.066;2023-04-01T02:39:31;4.17;;;1.53;;
76176;SDS011;64938;47.696;8.066;2023-04-01T02:41:57;3.50;;;1.27;;
76176;SDS011;64938;47.696;8.066;2023-04-01T02:44:22;3.50;;;1.33;;
76176;SDS011;64938;47.696;8.066;2023-04-01T02:46:48;2.53;;;0.90;;
76176;SDS011;64938;47.696;8.066;2023-04-01T02:49:13;9.53;;;1.40;;
76176;SDS011;64938;47.696;8.066;2023-04-01T02:51:39;3.60;;;1.40;;
76176;SDS011;64938;47.696;8.066;2023-04-01T02:54:04;4.87;;;1.40;;
76176;SDS011;64938;47.696;8.066;2023-04-01T02:56:30;3.40;;;1.20;;
76176;SDS011;64938;47.696;8.066;2023-04-01T02:58:56;2.30;;;1.13;;
76176;SDS011;64938;47.696;8.066;2023-04-01T03:01:21;4.03;;;1.53;;
76176;SDS011;64938;47.696;8.066;2023-04-01T03:03:47;3.00;;;1.40;;
76176;SDS011;64938;47.696;8.066;2023-04-01T03:06:13;5.83;;;1.33;;
76176;SDS011;64938;47.696;8.066;2023-04-01T03:08:40;2.40;;;1.30;;
76176;SDS011;64938;47.696;8.066;2023-04-01T03:11:06;5.03;;;1.10;;
76176;SDS011;64938;47.696;8.066;2023-04-01T03:13:32;2.20;;;1.00;;
76176;SDS011;64938;47.696;8.066;2023-04-01T03:15:58;3.27;;;1.23;;
76176;SDS011;64938;47.696;8.066;2023-04-01T03:18:23;3.90;;;1.33;;
76176;SDS011;64938;47.696;8.066;2023-04-01T03:20:49;6.37;;;1.47;;
76176;SDS011;64938;47.696;8.066;2023-04-01T03:23:15;5.03;;;1.67;;
76176;SDS011;64938;47.696;8.066;2023-04-01T03:25:42;3.37;;;1.00;;
76176;SDS011;64938;47.696;8.066;2023-04-01T03:28:08;2.37;;;1.23;;
76176;SDS011;64938;47.696;8.066;2023-04-01T03:30:34;3.50;;;0.77;;
76176;SDS011;64938;47.696;8.066;2023-04-01T03:32:59;1.73;;;0.70;;
76176;SDS011;64938;47.696;8.066;2023-04-01T03:35:26;1.70;;;0.70;;
76176;SDS011;64938;47.696;8.066;2023-04-01T03:37:52;1.33;;;0.70;;
76176;SDS011;64938;47.696;8.066;2023-04-01T03:40:18;2.00;;;0.57;;
76176;SDS011;64938;47.696;8.066;2023-04-01T03:42:43;0.90;;;0.50;;
76176;SDS011;64938;47.696;8.066;2023-04-01T03:45:09;1.37;;;0.40;;
76176;SDS011;64938;47.696;8.066;2023-04-01T03:47:38;1.00;;;0.70;;
76176;SDS011;64938;47.696;8.066;2023-04-01T03:50:05;1.43;;;0.50;;
76176;SDS011;64938;47.696;8.066;2023-04-01T03:52:31;3.40;;;0.57;;
76176;SDS011;64938;47.696;8.066;2023-04-01T03:55:01;2.87;;;0.90;;
76176;SDS011;64938;47.696;8.066;2023-04-01T03:57:27;1.60;;;0.50;;
76176;SDS011;64938;47.696;8.066;2023-04-01T03:59:52;2.20;;;0.70;;
76176;SDS011;64938;47.696;8.066;2023-04-01T04:02:18;1.70;;;0.50;;
76176;SDS011;64938;47.696;8.066;2023-04-01T04:04:43;0.87;;;0.50;;
76176;SDS011;64938;47.696;8.066;2023-04-01T04:07:09;1.40;;;0.50;;
76176;SDS011;64938;47.696;8.066;2023-04-01T04:09:35;1.20;;;0.43;;
76176;SDS011;64938;47.696;8.066;2023-04-01T04:12:01;1.63;;;0.53;;
76176;SDS011;64938;47.696;8.066;2023-04-01T04:14:26;2.83;;;0.70;;
76176;SDS011;64938;47.696;8.066;2023-04-01T04:16:52;2.43;;;1.10;;
76176;SDS011;64938;47.696;8.066;2023-04-01T04:19:18;0.60;;;0.57;;
76176;SDS011;64938;47.696;8.066;2023-04-01T04:21:43;3.17;;;1.10;;
76176;SDS011;64938;47.696;8.066;2023-04-01T04:24:09;1.30;;;0.63;;
76176;SDS011;64938;47.696;8.066;2023-04-01T04:26:38;1.47;;;0.60;;
76176;SDS011;64938;47.696;8.066;2023-04-01T04:29:04;2.23;;;0.70;;
76176;SDS011;64938;47.696;8.066;2023-04-01T04:31:29;2.13;;;0.87;;
76176;SDS011;64938;47.696;8.066;2023-04-01T04:33:55;3.57;;;1.20;;
76176;SDS011;64938;47.696;8.066;2023-04-01T04:36:21;3.70;;;1.07;;
76176;SDS011;64938;47.696;8.066;2023-04-01T04:38:47;3.37;;;0.97;;
76176;SDS011;64938;47.696;8.066;2023-04-01T04:41:13;2.60;;;0.97;;
76176;SDS011;64938;47.696;8.066;2023-04-01T04:43:40;2.00;;;1.20;;
76176;SDS011;64938;47.696;8.066;2023-04-01T04:46:09;1.70;;;1.10;;
76176;SDS011;64938;47.696;8.066;2023-04-01T04:48:36;2.80;;;1.13;;
76176;SDS011;64938;47.696;8.066;2023-04-01T04:51:01;2.10;;;0.97;;
76176;SDS011;64938;47.696;8.066;2023-04-01T04:53:27;1.80;;;0.87;;
76176;SDS011;64938;47.696;8.066;2023-04-01T04:55:53;2.90;;;0.70;;
76176;SDS011;64938;47.696;8.066;2023-04-01T04:58:19;3.50;;;1.07;;
76176;SDS011;64938;47.696;8.066;2023-04-01T05:00:45;5.83;;;1.10;;
76176;SDS011;64938;47.696;8.066;2023-04-01T05:03:11;3.20;;;1.03;;
76176;SDS011;64938;47.696;8.066;2023-04-01T05:05:37;8.73;;;1.30;;
76176;SDS011;64938;47.696;8.066;2023-04-01T05:08:03;1.77;;;1.00;;
76176;SDS011;64938;47.696;8.066;2023-04-01T05:10:29;1.80;;;0.80;;
76176;SDS011;64938;47.696;8.066;2023-04-01T05:12:55;3.17;;;1.20;;
76176;SDS011;64938;47.696;8.066;2023-04-01T05:15:21;3.40;;;1.07;;
76176;SDS011;64938;47.696;8.066;2023-04-01T05:17:47;3.43;;;0.90;;
76176;SDS011;64938;47.696;8.066;2023-04-01T05:20:13;2.40;;;1.23;;
76176;SDS011;64938;47.696;8.066;2023-04-01T05:22:41;3.83;;;0.97;;
76176;SDS011;64938;47.696;8.066;2023-04-01T05:25:07;5.43;;;1.43;;
76176;SDS011;64938;47.696;8.066;2023-04-01T05:27:34;2.10;;;0.87;;
76176;SDS011;64938;47.696;8.066;2023-04-01T05:29:59;3.87;;;0.87;;
76176;SDS011;64938;47.696;8.066;2023-04-01T05:32:25;2.60;;;0.80;;
76176;SDS011;64938;47.696;8.066;2023-04-01T05:34:51;1.10;;;0.70;;
76176;SDS011;64938;47.696;8.066;2023-04-01T05:37:17;4.20;;;1.37;;
76176;SDS011;64938;47.696;8.066;2023-04-01T05:39:43;1.93;;;0.90;;
76176;SDS011;64938;47.696;8.066;2023-04-01T05:42:08;5.50;;;1.17;;
76176;SDS011;64938;47.696;8.066;2023-04-01T05:44:34;1.53;;;0.90;;
76176;SDS011;64938;47.696;8.066;2023-04-01T05:47:00;1.93;;;1.13;;
76176;SDS011;64938;47.696;8.066;2023-04-01T05:49:28;1.87;;;0.80;;
76176;SDS011;64938;47.696;8.066;2023-04-01T05:51:54;1.70;;;0.97;;
76176;SDS011;64938;47.696;8.066;2023-04-01T05:54:19;2.10;;;1.20;;
76176;SDS011;64938;47.696;8.066;2023-04-01T05:56:45;1.77;;;0.70;;
76176;SDS011;64938;47.696;8.066;2023-04-01T05:59:11;1.27;;;0.57;;
76176;SDS011;64938;47.696;8.066;2023-04-01T06:01:37;1.67;;;0.70;;
76176;SDS011;64938;47.696;8.066;2023-04-01T06:04:03;2.30;;;0.80;;
76176;SDS011;64938;47.696;8.066;2023-04-01T06:06:29;1.83;;;0.93;;
76176;SDS011;64938;47.696;8.066;2023-04-01T06:08:57;3.00;;;1.10;;
76176;SDS011;64938;47.696;8.066;2023-04-01T06:14:16;1.80;;;0.80;;
76176;SDS011;64938;47.696;8.066;2023-04-01T06:45:59;1.50;;;0.80;;
76176;SDS011;64938;47.696;8.066;2023-04-01T06:56:30;1.30;;;0.80;;
76176;SDS011;64938;47.696;8.066;2023-04-01T06:59:00;0.67;;;0.53;;
76176;SDS011;64938;47.696;8.066;2023-04-01T07:01:53;0.90;;;0.50;;
76176;SDS011;64938;47.696;8.066;2023-04-01T07:04:22;0.60;;;0.50;;
76176;SDS011;64938;47.696;8.066;2023-04-01T07:07:01;0.50;;;0.50;;
76176;SDS011;64938;47.696;8.066;2023-04-01T07:09:41;1.03;;;0.60;;
76176;SDS011;64938;47.696;8.066;2023-04-01T07:12:15;0.50;;;0.40;;
76176;SDS011;64938;47.696;8.066;2023-04-01T07:14:43;0.97;;;0.60;;
76176;SDS011;64938;47.696;8.066;2023-04-01T07:17:12;0.93;;;0.50;;
76176;SDS011;64938;47.696;8.066;2023-04-01T07:22:14;1.10;;;0.90;;
76176;SDS011;64938;47.696;8.066;2023-04-01T07:24:54;2.10;;;0.80;;
76176;SDS011;64938;47.696;8.066;2023-04-01T07:27:19;0.70;;;0.60;;
76176;SDS011;64938;47.696;8.066;2023-04-01T07:29:45;0.77;;;0.77;;
76176;SDS011;64938;47.696;8.066;2023-04-01T07:37:58;1.80;;;0.90;;
76176;SDS011;64938;47.696;8.066;2023-04-01T07:46:02;1.03;;;0.70;;
76176;SDS011;64938;47.696;8.066;2023-04-01T07:51:14;1.90;;;0.80;;
76176;SDS011;64938;47.696;8.066;2023-04-01T08:05:12;0.97;;;0.60;;
76176;SDS011;64938;47.696;8.066;2023-04-01T08:07:45;3.50;;;0.70;;
76176;SDS011;64938;47.696;8.066;2023-04-01T08:24:19;2.03;;;0.80;;
76176;SDS011;64938;47.696;8.066;2023-04-01T08:32:43;7.20;;;0.67;;
76176;SDS011;64938;47.696;8.066;2023-04-01T08:35:17;2.00;;;0.70;;
76176;SDS011;64938;47.696;8.066;2023-04-01T08:37:53;2.00;;;0.67;;
76176;SDS011;64938;47.696;8.066;2023-04-01T08:45:44;2.60;;;0.60;;
76176;SDS011;64938;47.696;8.066;2023-04-01T09:05:23;1.17;;;0.60;;
76176;SDS011;64938;47.696;8.066;2023-04-01T09:10:54;1.47;;;0.70;;
76176;SDS011;64938;47.696;8.066;2023-04-01T09:13:29;1.83;;;0.60;;
76176;SDS011;64938;47.696;8.066;2023-04-01T09:19:28;2.80;;;0.80;;
76176;SDS011;64938;47.696;8.066;2023-04-01T09:35:46;1.90;;;0.87;;
76176;SDS011;64938;47.696;8.066;2023-04-01T09:38:30;1.80;;;0.80;;
76176;SDS011;64938;47.696;8.066;2023-04-01T10:17:09;2.50;;;0.70;;
76176;SDS011;64938;47.696;8.066;2023-04-01T10:49:38;2.30;;;1.23;;
76176;SDS011;64938;47.696;8.066;2023-04-01T11:27:57;1.03;;;0.63;;
76176;SDS011;64938;47.696;8.066;2023-04-01T11:33:47;0.90;;;0.60;;
76176;SDS011;64938;47.696;8.066;2023-04-01T11:41:37;1.37;;;1.00;;
76176;SDS011;64938;47.696;8.066;2023-04-01T11:44:15;2.97;;;1.47;;
76176;SDS011;64938;47.696;8.066;2023-04-01T11:49:55;1.20;;;0.90;;
76176;SDS011;64938;47.696;8.066;2023-04-01T12:12:04;2.73;;;0.97;;
76176;SDS011;64938;47.696;8.066;2023-04-01T12:14:54;1.87;;;1.00;;
76176;SDS011;64938;47.696;8.066;2023-04-01T12:20:25;0.80;;;0.73;;
76176;SDS011;64938;47.696;8.066;2023-04-01T12:22:59;1.10;;;1.00;;
76176;SDS011;64938;47.696;8.066;2023-04-01T12:28:36;1.03;;;1.00;;
76176;SDS011;64938;47.696;8.066;2023-04-01T12:31:27;2.40;;;1.07;;
76176;SDS011;64938;47.696;8.066;2023-04-01T12:45:33;1.53;;;0.97;;
76176;SDS011;64938;47.696;8.066;2023-04-01T12:58:15;0.70;;;0.60;;
76176;SDS011;64938;47.696;8.066;2023-04-01T13:08:45;1.20;;;0.80;;
76176;SDS011;64938;47.696;8.066;2023-04-01T13:19:47;1.60;;;1.03;;
76176;SDS011;64938;47.696;8.066;2023-04-01T13:30:58;1.10;;;1.00;;
76176;SDS011;64938;47.696;8.066;2023-04-01T13:33:39;1.83;;;1.00;;
76176;SDS011;64938;47.696;8.066;2023-04-01T13:59:50;1.20;;;0.67;;
76176;SDS011;64938;47.696;8.066;2023-04-01T14:10:45;1.07;;;0.70;;
76176;SDS011;64938;47.696;8.066;2023-04-01T14:15:50;1.57;;;0.60;;
76176;SDS011;64938;47.696;8.066;2023-04-01T14:31:54;1.23;;;0.50;;
76176;SDS011;64938;47.696;8.066;2023-04-01T14:37:58;1.20;;;0.67;;
76176;SDS011;64938;47.696;8.066;2023-04-01T14:47:04;0.80;;;0.53;;
76176;SDS011;64938;47.696;8.066;2023-04-01T14:52:09;0.60;;;0.40;;
76176;SDS011;64938;47.696;8.066;2023-04-01T14:54:36;0.67;;;0.50;;
76176;SDS011;64938;47.696;8.066;2023-04-01T14:59:51;0.93;;;0.60;;
76176;SDS011;64938;47.696;8.066;2023-04-01T15:18:35;1.47;;;0.50;;
76176;SDS011;64938;47.696;8.066;2023-04-01T15:32:21;0.67;;;0.50;;
76176;SDS011;64938;47.696;8.066;2023-04-01T15:37:57;2.23;;;0.50;;
76176;SDS011;64938;47.696;8.066;2023-04-01T15:43:27;0.70;;;0.70;;
76176;SDS011;64938;47.696;8.066;2023-04-01T16:00:31;0.60;;;0.60;;
76176;SDS011;64938;47.696;8.066;2023-04-01T16:03:17;0.60;;;0.40;;
76176;SDS011;64938;47.696;8.066;2023-04-01T16:13:46;0.70;;;0.40;;
76176;SDS011;64938;47.696;8.066;2023-04-01T16:33:00;1.60;;;0.80;;
76176;SDS011;64938;47.696;8.066;2023-04-01T16:38:19;0.77;;;0.57;;
76176;SDS011;64938;47.696;8.066;2023-04-01T16:47:19;1.00;;;0.50;;
76176;SDS011;64938;47.696;8.066;2023-04-01T16:58:23;0.70;;;0.70;;
76176;SDS011;64938;47.696;8.066;2023-04-01T17:01:04;1.53;;;0.80;;
76176;SDS011;64938;47.696;8.066;2023-04-01T17:03:51;1.70;;;0.80;;
76176;SDS011;64938;47.696;8.066;2023-04-01T17:06:21;1.60;;;0.67;;
76176;SDS011;64938;47.696;8.066;2023-04-01T17:11:49;3.27;;;1.83;;
76176;SDS011;64938;47.696;8.066;2023-04-01T17:17:37;3.00;;;1.30;;
76176;SDS011;64938;47.696;8.066;2023-04-01T17:20:19;1.13;;;1.03;;
76176;SDS011;64938;47.696;8.066;2023-04-01T17:23:13;2.40;;;1.50;;
76176;SDS011;64938;47.696;8.066;2023-04-01T17:47:18;1.20;;;1.00;;
76176;SDS011;64938;47.696;8.066;2023-04-01T17:58:59;1.93;;;1.40;;
76176;SDS011;64938;47.696;8.066;2023-04-01T18:01:36;4.83;;;1.00;;
76176;SDS011;64938;47.696;8.066;2023-04-01T18:25:01;1.80;;;0.73;;
76176;SDS011;64938;47.696;8.066;2023-04-01T18:27:44;2.60;;;0.83;;
76176;SDS011;64938;47.696;8.066;2023-04-01T18:30:13;0.90;;;0.70;;
76176;SDS011;64938;47.696;8.066;2023-04-01T18:32:58;1.50;;;0.73;;
76176;SDS011;64938;47.696;8.066;2023-04-01T18:38:23;2.73;;;1.43;;
76176;SDS011;64938;47.696;8.066;2023-04-01T18:57:01;1.50;;;1.30;;
76176;SDS011;64938;47.696;8.066;2023-04-01T18:59:32;1.50;;;1.40;;
76176;SDS011;64938;47.696;8.066;2023-04-01T19:02:04;1.60;;;1.33;;
76176;SDS011;64938;47.696;8.066;2023-04-01T19:04:36;2.50;;;1.33;;
76176;SDS011;64938;47.696;8.066;2023-04-01T19:07:30;1.93;;;1.43;;
76176;SDS011;64938;47.696;8.066;2023-04-01T19:20:49;1.40;;;1.20;;
76176;SDS011;64938;47.696;8.066;2023-04-01T19:31:34;2.30;;;1.33;;
76176;SDS011;64938;47.696;8.066;2023-04-01T19:34:14;1.40;;;1.30;;
76176;SDS011;64938;47.696;8.066;2023-04-01T19:45:07;1.33;;;1.23;;
76176;SDS011;64938;47.696;8.066;2023-04-01T19:47:53;1.30;;;1.20;;
76176;SDS011;64938;47.696;8.066;2023-04-01T19:52:56;1.30;;;1.20;;
76176;SDS011;64938;47.696;8.066;2023-04-01T19:58:28;1.30;;;1.20;;
76176;SDS011;64938;47.696;8.066;2023-04-01T20:01:03;1.20;;;1.10;;
76176;SDS011;64938;47.696;8.066;2023-04-01T20:06:23;1.30;;;1.20;;
76176;SDS011;64938;47.696;8.066;2023-04-01T20:11:58;1.10;;;1.00;;
76176;SDS011;64938;47.696;8.066;2023-04-01T20:14:36;2.03;;;0.97;;
76176;SDS011;64938;47.696;8.066;2023-04-01T20:17:47;2.37;;;1.10;;
76176;SDS011;64938;47.696;8.066;2023-04-01T20:38:51;1.10;;;1.00;;
76176;SDS011;64938;47.696;8.066;2023-04-01T20:42:05;2.53;;;1.20;;
76176;SDS011;64938;47.696;8.066;2023-04-01T20:53:22;1.57;;;1.30;;
76176;SDS011;64938;47.696;8.066;2023-04-01T21:07:54;3.20;;;1.33;;
76176;SDS011;64938;47.696;8.066;2023-04-01T21:10:43;2.73;;;1.40;;
76176;SDS011;64938;47.696;8.066;2023-04-01T21:13:21;4.00;;;1.50;;
76176;SDS011;64938;47.696;8.066;2023-04-01T21:21:22;1.70;;;1.33;;
76176;SDS011;64938;47.696;8.066;2023-04-01T21:28:55;1.30;;;1.20;;
76176;SDS011;64938;47.696;8.066;2023-04-01T21:39:22;3.70;;;1.20;;
76176;SDS011;64938;47.696;8.066;2023-04-01T21:42:21;1.20;;;1.10;;
76176;SDS011;64938;47.696;8.066;2023-04-01T21:55:34;1.73;;;1.37;;
76176;SDS011;64938;47.696;8.066;2023-04-01T22:07:25;3.60;;;1.80;;
76176;SDS011;64938;47.696;8.066;2023-04-01T22:09:59;1.67;;;1.27;;
76176;SDS011;64938;47.696;8.066;2023-04-01T22:12:35;1.07;;;0.90;;
76176;SDS011;64938;47.696;8.066;2023-04-01T22:17:41;1.20;;;1.10;;
76176;SDS011;64938;47.696;8.066;2023-04-01T22:20:17;1.77;;;1.20;;
76176;SDS011;64938;47.696;8.066;2023-04-01T22:23:00;1.57;;;1.00;;
76176;SDS011;64938;47.696;8.066;2023-04-01T22:28:27;0.90;;;0.80;;
76176;SDS011;64938;47.696;8.066;2023-04-01T22:30:59;0.90;;;0.73;;
76176;SDS011;64938;47.696;8.066;2023-04-01T22:43:54;0.70;;;0.70;;
76176;SDS011;64938;47.696;8.066;2023-04-01T22:48:54;2.30;;;1.43;;
76176;SDS011;64938;47.696;8.066;2023-04-01T22:56:37;2.63;;;2.43;;
76176;SDS011;64938;47.696;8.066;2023-04-01T22:59:08;2.57;;;2.37;;
76176;SDS011;64938;47.696;8.066;2023-04-01T23:01:40;2.80;;;2.60;;
76176;SDS011;64938;47.696;8.066;2023-04-01T23:04:09;3.60;;;3.00;;
76176;SDS011;64938;47.696;8.066;2023-04-01T23:06:38;2.80;;;2.60;;
76176;SDS011;64938;47.696;8.066;2023-04-01T23:19:46;3.67;;;2.87;;
76176;SDS011;64938;47.696;8.066;2023-04-01T23:22:28;2.93;;;2.60;;
76176;SDS011;64938;47.696;8.066;2023-04-01T23:31:13;3.60;;;3.30;;
76176;SDS011;64938;47.696;8.066;2023-04-01T23:34:02;2.60;;;2.40;;
76176;SDS011;64938;47.696;8.066;2023-04-01T23:36:43;3.30;;;3.00;;
76176;SDS011;64938;47.696;8.066;2023-04-01T23:39:29;4.60;;;3.27;;
76176;SDS011;64938;47.696;8.066;2023-04-01T23:42:04;2.83;;;2.63;;
76176;SDS011;64938;47.696;8.066;2023-04-01T23:44:32;3.80;;;3.43;;
76176;SDS011;64938;47.696;8.066;2023-04-01T23:46:59;3.40;;;3.10;;
76176;SDS011;64938;47.696;8.066;2023-04-01T23:49:35;3.03;;;2.77;;
76176;SDS011;64938;47.696;8.066;2023-04-01T23:52:08;2.93;;;2.70;;
76176;SDS011;64938;47.696;8.066;2023-04-01T23:54:42;4.03;;;3.13;;
76176;SDS011;64938;47.696;8.066;2023-04-01T23:57:11;3.47;;;2.90;;
76176;SDS011;64938;47.696;8.066;2023-04-01T23:59:39;3.10;;;2.90;;
